5T9

Maverick County Memorial International Airport

Eagle Pass, Texas, USA
METAR K5T9 121915Z AUTO 00000KT 10SM CLR 10/05 A2995 RMK A01
Observed Flight Rules
Dec-12 @ 19:15 UTC (35 minutes ago) Visual Flight Rules
Visibility Clouds
10 miles
  • Clear skies
Temperatures Readings
Current 10°C / 50°F
Dewpoint 5°C / 41°F
Humidity 71%
Altimeter 29.95" Hg
Pressure 1014 hPa
Elevation 270
METAR K5T9 121915Z AUTO 00000KT 10SM CLR 10/05 A2995 RMK A01
Observed Flight Rules
Dec-12 @ 19:15 UTC
(35 minutes ago)
VFR
Clouds
  • Clear skies
Temperature Dewpoint
10°C / 50°F 5°C / 41°F
Humidity Altimeter Pressure
71% 29.95" Hg 1014 hPa